Wausau, WI

6:45 AM CDT on April 19, 2015 (GMT -0500)
Wausau Downtown | | Change Station
CLOSE
Current Station
Airport
Location: Wausau,
Elevation: 1201 ft
Nearby Weather Stations

Elev 1201 ft 44.93 °N, 89.63 °W | Updated 51 minutes ago

Mostly Cloudy
Mostly Cloudy
45 °F
Feels Like 40 °F
N
10
Wind Variable Wind from ESE

Today
High -- | Low -- °F
--% Chance of Precip.
Yesterday
High -- | Low -- °F
Precip. -- in
6:07 AM 7:48 PM
New Moon, 1% visible
Pressure 29.91 in
Visibility 10.0 miles
Clouds Mostly Cloudy 8500 ft
Windchill 40 °F
Dew Point 24 °F
Humidity 44%
Rainfall 0.00 in
Snow Depth Not available.
UV 0 out of 12
Pollen 6.70 out of 12
Air Quality Not available.
Flu Activity Local Activity
METAR KAUW 191054Z AUTO 12009KT 10SM BKN085 07/M04 A2988 RMK AO2 SLP126 T00721044

More Conditions Fewer Conditions

Pressure 29.91 in
Visibility 10.0 miles
Clouds Mostly Cloudy 8500 ft
Windchill 40 °F
Dew Point 24 °F
Humidity 44%
Rainfall 0.00 in
Snow Depth Not available.
UV 0 out of 12
Pollen 6.70 out of 12
Air Quality Not available.
Flu Activity Local Activity
METAR KAUW 191054Z AUTO 12009KT 10SM BKN085 07/M04 A2988 RMK AO2 SLP126 T00721044

More Conditions Fewer Conditions

10-Day Weather Forecast

Almanac

Astronomy

Apr. 19, 2015 Rise Set
Actual Time
Civil Twilight
Nautical Twilight
Astronomical Twilight
Moon
Length of Visible Light
Length of Day
Tomorrow will be .
, % of the Moon is Illuminated

Today's Extremes

State Highs State Lows

Community

WunderPhotos

Upload Photos

1,814,760 photos uploaded!

WunderBlogs® & News

Nearby

Air Quality

  Air Quality AQ Index Pollutant
Not available.

Snow Depth

Station Depth Elevation

Earthquake Activity

City Distance Mag. Time & Date
Minimum magnitude displayed is 2.5.

Coastal Water Temperatures

Place Temperature

Stations

Nearby Weather Stations

Station Location Temp. Windchill Dew Point Humidity Wind Precip. Elev Updated Type